Time;durP1;ratioP1;P1;durP2;ratioP2;P2;SDS_P1;SDS_P2;PMS_P1;PMS_P2;Temp;Humidity;BMP_temperature;BMP_pressure;BME280_temperature;BME280_humidity;BME280_pressure;Samples;Min_cycle;Max_cycle;Signal;HPM_P1;HPM_P2
2024/01/07 00:00:50;;;;;;;30.10;17.67;;;;;;;7.72;100.00;98841.38;5073958;28;20047;-46
2024/01/07 00:03:18;;;;;;;33.65;18.13;;;;;;;7.86;100.00;98829.81;5073720;28;20041;-46
2024/01/07 00:05:48;;;;;;;29.50;17.33;;;;;;;7.69;100.00;98838.94;5074034;28;20405;-45
2024/01/07 00:08:17;;;;;;;31.55;17.27;;;;;;;7.78;100.00;98846.25;5073641;28;20383;-49
2024/01/07 00:10:46;;;;;;;29.63;17.48;;;;;;;7.76;100.00;98845.53;5073565;28;20088;-45
2024/01/07 00:13:15;;;;;;;27.67;16.45;;;;;;;7.69;100.00;98834.50;5073838;28;20436;-46
2024/01/07 00:15:44;;;;;;;30.00;17.05;;;;;;;7.71;100.00;98837.03;5073515;28;20556;-46
2024/01/07 00:18:13;;;;;;;32.05;18.35;;;;;;;7.83;100.00;98838.84;5073200;28;20536;-46
2024/01/07 00:20:41;;;;;;;29.15;17.30;;;;;;;7.86;100.00;98841.25;5073257;28;20135;-46
2024/01/07 00:23:13;;;;;;;30.00;17.23;;;;;;;7.80;100.00;98838.19;5072769;28;20045;-50
2024/01/07 00:25:42;;;;;;;29.42;15.88;;;;;;;7.80;100.00;98841.69;5073152;28;20490;-45
2024/01/07 00:28:11;;;;;;;24.13;15.52;;;;;;;7.81;100.00;98851.34;5073381;28;20048;-46
2024/01/07 00:30:39;;;;;;;26.73;16.27;;;;;;;7.98;100.00;98839.53;5073003;28;20064;-46
2024/01/07 00:33:08;;;;;;;24.45;15.13;;;;;;;8.12;100.00;98836.75;5073049;28;20512;-47
2024/01/07 00:35:36;;;;;;;24.75;15.80;;;;;;;8.15;100.00;98838.31;5072966;28;20489;-46
2024/01/07 00:38:04;;;;;;;24.02;14.43;;;;;;;7.66;100.00;98837.38;5073151;28;20078;-47
2024/01/07 00:40:33;;;;;;;24.30;14.32;;;;;;;7.74;100.00;98831.53;5073014;28;20052;-46
2024/01/07 00:43:03;;;;;;;22.10;14.00;;;;;;;7.60;100.00;98831.63;5073165;28;20064;-47
2024/01/07 00:45:31;;;;;;;21.90;13.52;;;;;;;7.54;100.00;98826.78;5072832;28;20049;-46
2024/01/07 00:47:59;;;;;;;25.65;14.82;;;;;;;7.55;100.00;98828.47;5073023;28;20056;-47
2024/01/07 00:50:28;;;;;;;23.02;14.18;;;;;;;7.53;100.00;98825.06;5073091;28;20044;-46
2024/01/07 00:52:56;;;;;;;23.20;14.10;;;;;;;7.49;100.00;98840.34;5071462;28;20048;-46
2024/01/07 00:55:25;;;;;;;21.63;13.43;;;;;;;7.43;100.00;98839.00;5072672;28;20044;-46
2024/01/07 00:57:53;;;;;;;23.33;14.10;;;;;;;7.50;100.00;98841.19;5072518;28;20051;-46
2024/01/07 01:00:23;;;;;;;24.80;14.52;;;;;;;7.61;100.00;98839.47;5072677;28;20072;-46
2024/01/07 01:02:51;;;;;;;22.92;14.63;;;;;;;7.60;100.00;98837.78;5071988;28;20117;-46
2024/01/07 01:05:19;;;;;;;23.50;13.43;;;;;;;7.70;100.00;98838.00;5072117;28;20116;-45
2024/01/07 01:07:48;;;;;;;20.80;13.32;;;;;;;7.55;100.00;98839.94;5072314;28;20131;-46
2024/01/07 01:10:17;;;;;;;20.73;12.73;;;;;;;7.62;100.00;98841.19;5075360;28;20053;-46
2024/01/07 01:12:45;;;;;;;20.48;12.65;;;;;;;7.61;100.00;98838.63;5074922;28;20053;-47
2024/01/07 01:15:16;;;;;;;21.80;12.52;;;;;;;7.67;100.00;98838.22;5073882;28;20048;-47
2024/01/07 01:17:46;;;;;;;22.58;12.73;;;;;;;7.81;100.00;98832.75;5072179;28;20095;-46
2024/01/07 01:20:14;;;;;;;19.17;12.68;;;;;;;7.85;100.00;98834.25;5071971;28;20409;-48
2024/01/07 01:22:43;;;;;;;19.88;12.70;;;;;;;7.94;100.00;98830.94;5073433;28;20068;-48
2024/01/07 01:25:11;;;;;;;18.27;12.27;;;;;;;7.90;100.00;98826.81;5073693;28;20041;-46
2024/01/07 01:27:40;;;;;;;21.30;12.43;;;;;;;7.83;100.00;98822.91;5075794;28;20447;-47
2024/01/07 01:30:09;;;;;;;18.65;11.82;;;;;;;7.86;100.00;98825.34;5074347;28;20052;-48
2024/01/07 01:32:39;;;;;;;18.13;11.98;;;;;;;7.97;100.00;98820.09;5072604;28;20099;-45
2024/01/07 01:35:10;;;;;;;18.85;11.77;;;;;;;7.86;100.00;98827.16;5071831;28;20080;-46
2024/01/07 01:37:38;;;;;;;20.65;11.93;;;;;;;7.99;100.00;98822.63;5072053;28;20044;-46
2024/01/07 01:40:07;;;;;;;20.05;11.80;;;;;;;7.83;100.00;98817.59;5072605;28;20048;-47
2024/01/07 01:42:36;;;;;;;19.38;11.30;;;;;;;8.01;100.00;98818.09;5072061;28;20044;-49
2024/01/07 01:45:05;;;;;;;17.20;11.00;;;;;;;8.09;100.00;98822.81;5070956;28;20053;-47
2024/01/07 01:47:34;;;;;;;17.73;11.35;;;;;;;8.06;100.00;98823.91;5071914;28;20048;-48
2024/01/07 01:50:02;;;;;;;16.55;10.95;;;;;;;7.85;100.00;98821.00;5071921;28;20076;-46
2024/01/07 01:52:32;;;;;;;16.00;10.43;;;;;;;7.73;100.00;98816.56;5071583;28;20128;-45
2024/01/07 01:55:01;;;;;;;15.95;10.00;;;;;;;7.64;100.00;98814.56;5071547;28;20056;-46
2024/01/07 01:57:34;;;;;;;18.60;10.90;;;;;;;7.61;100.00;98814.75;5071716;28;20078;-46
2024/01/07 02:00:04;;;;;;;;;;;;;;;7.51;100.00;98817.22;5072242;28;20041;-45
2024/01/07 02:02:34;;;;;;;18.25;10.13;;;;;;;7.65;100.00;98821.56;5071617;28;20373;-45
2024/01/07 02:05:03;;;;;;;16.92;11.00;;;;;;;7.69;100.00;98812.41;5071365;28;20052;-46
2024/01/07 02:07:34;;;;;;;18.20;11.18;;;;;;;7.84;100.00;98808.69;5071642;28;20044;-48
2024/01/07 02:10:03;;;;;;;15.48;10.85;;;;;;;7.97;100.00;98806.81;5071538;28;20504;-47
2024/01/07 02:12:32;;;;;;;17.10;11.18;;;;;;;7.90;100.00;98807.38;5071698;28;20050;-46
2024/01/07 02:15:00;;;;;;;17.85;11.25;;;;;;;7.91;100.00;98799.31;5069963;28;20052;-46
2024/01/07 02:17:29;;;;;;;17.35;10.55;;;;;;;7.87;100.00;98805.78;5071242;28;20490;-47
2024/01/07 02:19:57;;;;;;;18.73;11.18;;;;;;;7.73;100.00;98803.28;5071307;28;20076;-47
2024/01/07 02:22:25;;;;;;;15.95;9.93;;;;;;;7.65;100.00;98795.03;5071295;28;20049;-46
2024/01/07 02:24:55;;;;;;;17.42;10.45;;;;;;;7.58;100.00;98793.75;5071105;28;20151;-45
2024/01/07 02:27:24;;;;;;;18.33;10.88;;;;;;;7.54;100.00;98798.44;5071356;28;20053;-46
2024/01/07 02:29:52;;;;;;;16.52;10.82;;;;;;;7.52;100.00;98807.44;5071270;28;20049;-46
2024/01/07 02:32:20;;;;;;;18.95;11.45;;;;;;;7.55;100.00;98807.25;5071027;28;20215;-46
2024/01/07 02:34:48;;;;;;;18.10;11.30;;;;;;;7.54;100.00;98800.25;5071054;28;20048;-46
2024/01/07 02:37:17;;;;;;;17.20;11.93;;;;;;;7.63;100.00;98787.19;5071266;28;20045;-46
2024/01/07 02:39:45;;;;;;;19.65;11.95;;;;;;;7.36;100.00;98787.31;5071123;28;20094;-46
2024/01/07 02:42:29;;;;;;;19.23;12.27;;;;;;;7.34;100.00;98786.59;5071245;28;20045;-46
2024/01/07 02:44:57;;;;;;;21.85;12.95;;;;;;;7.40;100.00;98791.44;5070926;28;20250;-46
2024/01/07 02:47:26;;;;;;;20.63;13.13;;;;;;;7.40;100.00;98788.78;5075293;28;20045;-45
2024/01/07 02:49:54;;;;;;;22.25;13.10;;;;;;;7.40;100.00;98783.47;5076642;28;20045;-47
2024/01/07 02:52:23;;;;;;;20.20;13.00;;;;;;;7.39;100.00;98781.78;5077467;28;20044;-46
2024/01/07 02:54:51;;;;;;;21.70;13.63;;;;;;;7.44;100.00;98784.97;5077414;28;20066;-45
2024/01/07 02:57:24;;;;;;;23.17;14.23;;;;;;;7.37;100.00;98778.41;5077250;28;20511;-46
2024/01/07 02:59:54;;;;;;;21.73;13.35;;;;;;;7.47;100.00;98774.13;5076580;28;20056;-46
2024/01/07 03:02:23;;;;;;;24.95;14.32;;;;;;;7.49;100.00;98781.13;5076387;28;20044;-46
2024/01/07 03:04:51;;;;;;;21.58;13.13;;;;;;;7.54;100.00;98773.72;5074728;28;20056;-46
2024/01/07 03:07:20;;;;;;;21.45;13.18;;;;;;;7.55;100.00;98786.03;5075119;28;20052;-45
2024/01/07 03:09:49;;;;;;;22.25;12.43;;;;;;;7.40;100.00;98774.66;5077372;28;20162;-48
2024/01/07 03:12:18;;;;;;;21.88;12.70;;;;;;;7.37;100.00;98770.44;5076860;28;20044;-45
2024/01/07 03:14:46;;;;;;;22.25;13.23;;;;;;;7.32;100.00;98764.59;5075765;28;20044;-46
2024/01/07 03:17:17;;;;;;;20.25;12.93;;;;;;;7.31;100.00;98760.25;5079503;28;20053;-46
2024/01/07 03:19:45;;;;;;;21.90;12.13;;;;;;;7.17;100.00;98763.03;5080342;28;20350;-45
2024/01/07 03:22:14;;;;;;;21.13;12.77;;;;;;;7.35;100.00;98771.50;5079738;28;20448;-47
2024/01/07 03:24:43;;;;;;;22.88;12.95;;;;;;;7.32;100.00;98769.91;5080031;28;20240;-49
2024/01/07 03:27:11;;;;;;;21.10;13.15;;;;;;;7.30;100.00;98768.31;5079902;28;20056;-49
2024/01/07 03:29:41;;;;;;;22.45;12.73;;;;;;;7.20;100.00;98767.28;5079290;28;20095;-46
2024/01/07 03:32:09;;;;;;;20.55;12.43;;;;;;;7.42;100.00;98757.69;5078487;28;20050;-46
2024/01/07 03:34:39;;;;;;;20.92;12.93;;;;;;;7.35;100.00;98759.09;5077351;28;20071;-46
2024/01/07 03:37:08;;;;;;;23.05;13.65;;;;;;;7.37;100.00;98759.84;5077194;28;20103;-45
2024/01/07 03:39:36;;;;;;;21.65;13.20;;;;;;;7.34;100.00;98761.88;5076911;28;20097;-46
2024/01/07 03:42:11;;;;;;;24.42;14.77;;;;;;;7.50;100.00;98757.16;5077695;28;20040;-46
2024/01/07 03:44:39;;;;;;;21.65;13.55;;;;;;;7.33;100.00;98754.84;5077586;28;20432;-45
2024/01/07 03:47:07;;;;;;;20.88;12.15;;;;;;;7.38;100.00;98752.72;5077980;28;20051;-44
2024/01/07 03:49:39;;;;;;;22.95;13.40;;;;;;;7.58;100.00;98753.94;5077469;28;20040;-46
2024/01/07 03:52:07;;;;;;;20.88;12.18;;;;;;;7.47;100.00;98760.88;5076345;28;20079;-49
2024/01/07 03:54:36;;;;;;;21.38;12.75;;;;;;;7.40;100.00;98762.25;5076405;28;20044;-46
2024/01/07 03:57:05;;;;;;;19.48;11.90;;;;;;;7.40;100.00;98762.25;5075788;28;20040;-46
2024/01/07 03:59:33;;;;;;;19.35;12.02;;;;;;;7.49;100.00;98759.91;5076111;28;20040;-48
2024/01/07 04:02:02;;;;;;;20.60;12.75;;;;;;;7.34;100.00;98764.50;5076703;28;20383;-46
2024/01/07 04:04:30;;;;;;;19.08;11.88;;;;;;;7.33;100.00;98771.59;5076671;28;20053;-47
2024/01/07 04:07:00;;;;;;;16.70;10.80;;;;;;;7.34;100.00;98768.00;5076288;28;20059;-46
2024/01/07 04:09:28;;;;;;;18.10;10.88;;;;;;;7.33;100.00;98768.94;5076423;28;20104;-46
2024/01/07 04:11:56;;;;;;;19.27;11.23;;;;;;;7.38;100.00;98769.47;5076537;28;20052;-46
2024/01/07 04:14:27;;;;;;;18.48;11.00;;;;;;;7.34;100.00;98770.66;5076915;28;20045;-46
2024/01/07 04:16:55;;;;;;;16.05;10.35;;;;;;;7.33;100.00;98770.75;5076324;28;20052;-46
2024/01/07 04:19:23;;;;;;;16.25;10.27;;;;;;;7.31;100.00;98772.66;5076030;28;20479;-45
2024/01/07 04:21:52;;;;;;;16.27;9.57;;;;;;;7.44;100.00;98778.81;5075862;28;20196;-46
2024/01/07 04:24:23;;;;;;;17.25;10.38;;;;;;;7.50;100.00;98775.72;5075852;28;20106;-45
2024/01/07 04:26:51;;;;;;;18.95;10.27;;;;;;;7.47;100.00;98775.94;5077036;28;20489;-46
2024/01/07 04:29:20;;;;;;;15.82;10.30;;;;;;;7.42;100.00;98781.56;5078375;28;20099;-46
2024/01/07 04:31:48;;;;;;;16.75;9.93;;;;;;;7.41;100.00;98779.88;5078988;28;20070;-46
2024/01/07 04:34:17;;;;;;;15.43;10.27;;;;;;;7.41;100.00;98779.03;5078458;28;20044;-46
2024/01/07 04:36:45;;;;;;;17.52;10.65;;;;;;;7.46;100.00;98783.06;5077422;28;20094;-48
2024/01/07 04:39:14;;;;;;;14.77;9.90;;;;;;;7.47;100.00;98768.84;5077039;28;20501;-46
2024/01/07 04:41:43;;;;;;;16.85;10.02;;;;;;;7.61;100.00;98780.25;5078036;28;20044;-45
2024/01/07 04:44:12;;;;;;;15.23;9.77;;;;;;;7.48;100.00;98774.97;5077558;28;20076;-46
2024/01/07 04:46:40;;;;;;;14.63;9.52;;;;;;;7.45;100.00;98786.66;5072764;28;20056;-45
2024/01/07 04:49:09;;;;;;;16.35;10.20;;;;;;;7.55;100.00;98778.91;5072884;28;20040;-45
2024/01/07 04:51:37;;;;;;;15.27;9.40;;;;;;;7.49;100.00;98781.13;5072552;28;20152;-48
2024/01/07 04:54:06;;;;;;;16.17;9.88;;;;;;;7.38;100.00;98784.56;5072635;28;20504;-46
2024/01/07 04:56:35;;;;;;;13.23;8.63;;;;;;;7.32;100.00;98779.66;5072102;28;20048;-47
2024/01/07 04:59:04;;;;;;;15.88;9.43;;;;;;;7.31;100.00;98778.81;5072142;28;20149;-45
2024/01/07 05:01:33;;;;;;;16.00;10.00;;;;;;;7.43;100.00;98782.41;5072217;28;20445;-45
2024/01/07 05:04:02;;;;;;;15.30;9.48;;;;;;;7.50;100.00;98773.06;5071877;28;20040;-46
2024/01/07 05:06:31;;;;;;;15.13;9.25;;;;;;;7.42;100.00;98780.72;5071456;28;20414;-45
2024/01/07 05:08:59;;;;;;;14.63;8.70;;;;;;;7.30;100.00;98787.72;5070404;28;20040;-45
2024/01/07 05:11:27;;;;;;;16.23;9.30;;;;;;;7.49;100.00;98778.47;5071558;28;20143;-46
2024/01/07 05:13:56;;;;;;;16.02;9.63;;;;;;;7.41;100.00;98774.56;5071944;28;20052;-46
2024/01/07 05:16:25;;;;;;;14.20;9.68;;;;;;;7.51;100.00;98766.78;5071432;28;20060;-45
2024/01/07 05:18:54;;;;;;;13.20;8.48;;;;;;;7.45;100.00;98765.44;5071831;28;20107;-45
2024/01/07 05:21:22;;;;;;;14.57;9.13;;;;;;;7.43;100.00;98766.50;5071807;28;20383;-45
2024/01/07 05:23:50;;;;;;;13.88;8.68;;;;;;;7.41;100.00;98773.72;5071829;28;20080;-46
2024/01/07 05:26:19;;;;;;;12.63;8.30;;;;;;;7.48;100.00;98769.69;5071895;28;20091;-45
2024/01/07 05:28:47;;;;;;;11.40;7.68;;;;;;;7.50;100.00;98765.09;5071935;28;20140;-45
2024/01/07 05:31:16;;;;;;;9.93;6.75;;;;;;;7.39;100.00;98762.38;5072132;28;20044;-45
2024/01/07 05:33:46;;;;;;;11.23;7.20;;;;;;;7.36;100.00;98775.84;5071862;28;20049;-46
2024/01/07 05:36:15;;;;;;;11.85;7.03;;;;;;;7.40;100.00;98772.88;5072037;28;20083;-46
2024/01/07 05:38:43;;;;;;;9.73;6.65;;;;;;;7.34;100.00;98770.66;5071657;28;20122;-45
2024/01/07 05:41:12;;;;;;;10.13;6.80;;;;;;;7.40;100.00;98770.22;5071868;28;20203;-47
2024/01/07 05:43:40;;;;;;;11.25;6.85;;;;;;;7.64;100.00;98769.44;5071682;28;20049;-47
2024/01/07 05:46:09;;;;;;;10.40;6.68;;;;;;;7.45;100.00;98784.00;5072564;28;20045;-47
2024/01/07 05:48:42;;;;;;;10.63;6.63;;;;;;;7.44;100.00;98771.72;5072634;28;20044;-47
2024/01/07 05:51:13;;;;;;;10.23;6.30;;;;;;;7.35;100.00;98767.06;5071638;28;20059;-47
2024/01/07 05:53:42;;;;;;;8.75;5.85;;;;;;;7.59;100.00;98771.56;5071476;28;20044;-46
2024/01/07 05:56:12;;;;;;;10.32;5.88;;;;;;;7.51;100.00;98769.44;5071396;28;20041;-46
2024/01/07 05:58:40;;;;;;;8.48;5.40;;;;;;;7.47;100.00;98774.13;5071429;28;20044;-46
2024/01/07 06:01:09;;;;;;;7.82;5.63;;;;;;;7.56;100.00;98777.09;5071690;28;20056;-46
2024/01/07 06:03:37;;;;;;;10.38;5.97;;;;;;;7.48;100.00;98777.63;5071545;28;20430;-45
2024/01/07 06:06:06;;;;;;;8.80;6.07;;;;;;;7.46;100.00;98772.44;5070416;28;20142;-46
2024/01/07 06:08:36;;;;;;;8.38;5.60;;;;;;;7.49;100.00;98776.69;5071163;28;20052;-45
2024/01/07 06:11:05;;;;;;;8.50;5.78;;;;;;;7.54;100.00;98779.03;5071259;28;20044;-45
2024/01/07 06:13:33;;;;;;;8.82;5.60;;;;;;;7.50;100.00;98777.53;5071060;28;20444;-45
2024/01/07 06:16:02;;;;;;;9.05;5.50;;;;;;;7.43;100.00;98779.75;5071158;28;20064;-45
2024/01/07 06:18:30;;;;;;;8.70;5.47;;;;;;;7.47;100.00;98775.94;5070505;28;20091;-45
2024/01/07 06:21:00;;;;;;;9.30;6.28;;;;;;;7.47;100.00;98774.13;5070563;28;20040;-46
2024/01/07 06:23:29;;;;;;;10.65;6.68;;;;;;;7.57;100.00;98778.78;5070659;28;20079;-46
2024/01/07 06:25:58;;;;;;;9.57;6.05;;;;;;;7.57;100.00;98779.63;5071062;28;20051;-46
2024/01/07 06:28:27;;;;;;;8.40;5.90;;;;;;;7.46;100.00;98783.06;5070738;28;20441;-45
2024/01/07 06:30:55;;;;;;;9.82;6.28;;;;;;;7.44;100.00;98777.03;5070913;28;20053;-45
2024/01/07 06:33:27;;;;;;;9.18;6.10;;;;;;;7.44;100.00;98784.97;5070702;28;20431;-45
2024/01/07 06:35:56;;;;;;;11.20;6.75;;;;;;;7.50;100.00;98778.38;5070997;28;20053;-46
2024/01/07 06:38:27;;;;;;;9.65;5.97;;;;;;;7.45;100.00;98788.47;5071018;28;20044;-45
2024/01/07 06:41:00;;;;;;;11.32;6.60;;;;;;;7.61;100.00;98775.78;5070630;28;20094;-46
2024/01/07 06:43:29;;;;;;;9.90;5.90;;;;;;;7.55;100.00;98778.06;5070469;28;20044;-46
2024/01/07 06:45:58;;;;;;;9.25;6.65;;;;;;;7.44;100.00;98790.28;5070807;28;20048;-45
2024/01/07 06:48:26;;;;;;;10.23;6.70;;;;;;;7.55;100.00;98783.38;5070435;28;20409;-46
2024/01/07 06:50:55;;;;;;;10.20;6.55;;;;;;;7.59;100.00;98796.28;5070634;28;20048;-45
2024/01/07 06:53:24;;;;;;;9.30;6.28;;;;;;;7.57;100.00;98794.72;5070502;28;20125;-46
2024/01/07 06:55:52;;;;;;;9.70;6.40;;;;;;;7.49;100.00;98794.41;5070407;28;20173;-45
2024/01/07 06:58:20;;;;;;;11.20;6.95;;;;;;;7.67;100.00;98795.75;5070573;28;20040;-49
2024/01/07 07:00:50;;;;;;;10.43;6.85;;;;;;;7.61;100.00;98796.19;5070348;28;20053;-46
2024/01/07 07:03:19;;;;;;;9.68;6.72;;;;;;;7.51;100.00;98801.28;5071411;28;20059;-47
2024/01/07 07:05:47;;;;;;;10.48;6.93;;;;;;;7.57;100.00;98807.97;5072412;28;20443;-46
2024/01/07 07:08:16;;;;;;;10.05;6.30;;;;;;;7.51;100.00;98805.75;5074506;28;20071;-46
2024/01/07 07:10:44;;;;;;;10.63;6.88;;;;;;;7.53;100.00;98807.34;5073008;28;20131;-44
2024/01/07 07:13:14;;;;;;;10.20;7.07;;;;;;;7.44;100.00;98811.50;5075048;28;20044;-46
2024/01/07 07:15:42;;;;;;;11.07;7.13;;;;;;;7.49;100.00;98812.97;5076945;28;20066;-45
2024/01/07 07:18:12;;;;;;;10.43;6.50;;;;;;;7.59;100.00;98804.25;5076128;28;20088;-45
2024/01/07 07:20:41;;;;;;;10.40;6.75;;;;;;;7.58;100.00;98807.88;5076569;28;20052;-49
2024/01/07 07:23:09;;;;;;;11.43;6.63;;;;;;;7.43;100.00;98809.81;5076165;28;20044;-45
2024/01/07 07:25:37;;;;;;;9.88;6.88;;;;;;;7.58;100.00;98812.31;5078821;28;20454;-46
2024/01/07 07:28:06;;;;;;;9.77;6.13;;;;;;;7.52;100.00;98815.41;5078541;28;20104;-46
2024/01/07 07:30:34;;;;;;;9.98;6.18;;;;;;;7.61;100.00;98809.44;5078366;28;20094;-46
2024/01/07 07:33:03;;;;;;;9.15;6.10;;;;;;;7.52;100.00;98812.75;5079711;28;20462;-45
2024/01/07 07:35:33;;;;;;;10.52;6.82;;;;;;;7.60;100.00;98813.91;5080157;28;20126;-50
2024/01/07 07:38:01;;;;;;;11.13;6.97;;;;;;;7.63;100.00;98811.06;5081363;28;20052;-46
2024/01/07 07:40:29;;;;;;;12.77;7.28;;;;;;;7.61;100.00;98799.69;5078967;28;20363;-45
2024/01/07 07:42:58;;;;;;;11.30;7.22;;;;;;;7.83;100.00;98808.78;5077412;28;20109;-46
2024/01/07 07:45:26;;;;;;;12.25;6.78;;;;;;;7.84;100.00;98808.69;5076744;28;20052;-47
2024/01/07 07:47:55;;;;;;;11.70;7.22;;;;;;;7.88;100.00;98814.59;5076171;28;20049;-45
2024/01/07 07:50:23;;;;;;;8.60;5.97;;;;;;;7.93;100.00;98815.97;5074457;28;20136;-45
2024/01/07 07:52:54;;;;;;;11.80;6.68;;;;;;;7.87;100.00;98818.22;5076505;28;20109;-45
2024/01/07 07:55:22;;;;;;;10.43;6.18;;;;;;;7.84;100.00;98813.97;5076494;28;20056;-46
2024/01/07 07:57:51;;;;;;;8.90;5.53;;;;;;;7.73;100.00;98824.53;5076720;28;20153;-45
2024/01/07 08:00:20;;;;;;;9.75;6.35;;;;;;;7.72;100.00;98820.16;5074916;28;20045;-47
2024/01/07 08:02:49;;;;;;;9.55;6.50;;;;;;;7.73;100.00;98828.03;5071947;28;20485;-45
2024/01/07 08:05:17;;;;;;;11.40;6.38;;;;;;;7.78;100.00;98819.72;5071833;28;20048;-45
2024/01/07 08:07:45;;;;;;;10.90;6.65;;;;;;;7.87;100.00;98820.88;5071740;28;20052;-45
2024/01/07 08:10:15;;;;;;;11.38;6.47;;;;;;;7.94;100.00;98817.66;5070505;28;20048;-44
2024/01/07 08:12:44;;;;;;;9.85;6.40;;;;;;;8.00;100.00;98819.88;5072034;28;20103;-45
2024/01/07 08:15:13;;;;;;;9.90;7.13;;;;;;;8.02;100.00;98825.94;5071997;28;20501;-46
2024/01/07 08:17:41;;;;;;;11.85;7.50;;;;;;;7.99;100.00;98823.47;5063526;28;20509;-46
2024/01/07 08:20:11;;;;;;;10.60;7.47;;;;;;;8.08;100.00;98824.63;5069661;28;20048;-44
2024/01/07 08:22:39;;;;;;;11.52;7.32;;;;;;;8.08;100.00;98835.25;5071558;28;20562;-47
2024/01/07 08:25:08;;;;;;;10.55;6.88;;;;;;;7.82;100.00;98831.84;5072013;28;20047;-46
2024/01/07 08:27:38;;;;;;;10.85;7.57;;;;;;;7.94;100.00;98840.72;5071748;28;20139;-44
2024/01/07 08:30:08;;;;;;;8.18;5.78;;;;;;;7.89;100.00;98834.88;5070729;28;20083;-47
2024/01/07 08:32:36;;;;;;;9.40;6.43;;;;;;;7.95;100.00;98843.25;5071593;28;20052;-46
2024/01/07 08:35:05;;;;;;;9.50;6.25;;;;;;;7.80;100.00;98841.69;5070941;28;20080;-45
2024/01/07 08:37:34;;;;;;;10.52;6.50;;;;;;;7.83;100.00;98843.31;5071861;28;20084;-45
2024/01/07 08:40:03;;;;;;;10.43;6.78;;;;;;;7.85;100.00;98846.69;5070104;28;20065;-46
2024/01/07 08:42:31;;;;;;;11.25;7.88;;;;;;;7.89;100.00;98843.69;5071521;28;20048;-44
2024/01/07 08:45:01;;;;;;;11.55;7.25;;;;;;;7.94;100.00;98848.69;5071410;28;20079;-44
2024/01/07 08:47:31;;;;;;;11.15;7.40;;;;;;;7.90;100.00;98848.03;5071147;28;20133;-45
2024/01/07 08:50:03;;;;;;;10.57;7.23;;;;;;;7.89;100.00;98854.31;5070587;28;20080;-45
2024/01/07 08:52:31;;;;;;;9.70;6.30;;;;;;;7.82;100.00;98855.72;5071527;28;20048;-46
2024/01/07 08:55:00;;;;;;;10.95;6.20;;;;;;;7.80;100.00;98854.97;5070800;28;20147;-45
2024/01/07 08:57:28;;;;;;;10.77;6.72;;;;;;;7.85;100.00;98859.97;5071048;28;20497;-44
2024/01/07 08:59:57;;;;;;;10.63;6.93;;;;;;;7.86;100.00;98857.19;5070090;28;20048;-46
2024/01/07 09:02:26;;;;;;;9.02;6.43;;;;;;;7.91;100.00;98856.84;5064266;28;20059;-46
2024/01/07 09:04:55;;;;;;;8.65;6.45;;;;;;;7.93;100.00;98861.13;5070998;28;20044;-46
2024/01/07 09:07:23;;;;;;;9.68;6.40;;;;;;;7.90;100.00;98866.63;5070558;28;20494;-47
2024/01/07 09:09:51;;;;;;;9.82;6.72;;;;;;;7.93;100.00;98868.22;5069999;28;20044;-45
2024/01/07 09:12:20;;;;;;;11.32;6.97;;;;;;;8.08;100.00;98858.31;5070791;28;20090;-45
2024/01/07 09:14:48;;;;;;;211.20;93.53;;;;;;;8.14;100.00;98863.19;5070476;28;20182;-47
2024/01/07 09:17:18;;;;;;;39.50;21.35;;;;;;;8.16;100.00;98864.75;5070617;28;20055;-47
2024/01/07 09:19:48;;;;;;;11.00;7.53;;;;;;;8.09;100.00;98862.66;5061161;28;20055;-45
2024/01/07 09:22:16;;;;;;;9.40;6.07;;;;;;;8.01;100.00;98860.56;5070494;28;20040;-45
2024/01/07 09:24:44;;;;;;;10.20;6.00;;;;;;;8.07;100.00;98867.22;5070120;28;20087;-45
2024/01/07 09:27:14;;;;;;;8.55;6.00;;;;;;;8.08;100.00;98859.16;5070019;28;20479;-44
2024/01/07 09:29:42;;;;;;;9.20;5.97;;;;;;;8.18;100.00;98869.97;5069312;28;20127;-46
2024/01/07 09:32:10;;;;;;;8.20;5.47;;;;;;;8.08;100.00;98869.78;5070726;28;20048;-45
2024/01/07 09:34:38;;;;;;;8.52;5.80;;;;;;;8.19;100.00;98866.34;5070107;28;20773;-44
2024/01/07 09:37:08;;;;;;;9.20;6.13;;;;;;;8.27;100.00;98869.28;5070211;28;20051;-45
2024/01/07 09:39:43;;;;;;;10.57;5.95;;;;;;;8.16;100.00;98866.56;5069553;28;20040;-44
2024/01/07 09:42:14;;;;;;;9.00;5.75;;;;;;;7.93;100.00;98868.22;5064000;28;20523;-44
2024/01/07 09:44:43;;;;;;;9.02;5.50;;;;;;;8.01;100.00;98863.22;5069950;28;20071;-46
2024/01/07 09:47:13;;;;;;;9.18;5.93;;;;;;;8.08;100.00;98860.97;5070219;28;20046;-44
2024/01/07 09:49:42;;;;;;;11.15;6.55;;;;;;;8.14;100.00;98857.88;5069340;28;20516;-44
2024/01/07 09:52:12;;;;;;;9.55;6.72;;;;;;;8.14;100.00;98852.56;5070198;28;20046;-44
2024/01/07 09:54:41;;;;;;;9.43;6.43;;;;;;;7.95;100.00;98840.59;5069787;28;20052;-44
2024/01/07 09:57:10;;;;;;;10.20;7.00;;;;;;;8.03;100.00;98854.19;5068523;28;20063;-45
2024/01/07 09:59:39;;;;;;;9.10;6.07;;;;;;;7.98;100.00;98844.84;5070205;28;20446;-45
2024/01/07 10:02:09;;;;;;;11.55;6.95;;;;;;;8.10;100.00;98849.25;5071564;28;20090;-46
2024/01/07 10:04:40;;;;;;;16.40;8.95;;;;;;;8.22;100.00;98852.84;5071205;28;20106;-46
2024/01/07 10:07:09;;;;;;;18.02;11.50;;;;;;;8.33;100.00;98852.94;5071393;28;20051;-49
2024/01/07 10:09:42;;;;;;;22.15;13.48;;;;;;;8.32;100.00;98856.53;5071337;28;20083;-47
2024/01/07 10:12:12;;;;;;;8.60;6.10;;;;;;;8.24;100.00;98842.97;5071233;28;20076;-46
2024/01/07 10:14:43;;;;;;;7.70;5.20;;;;;;;8.19;100.00;98845.94;5071371;28;20411;-45
2024/01/07 10:17:18;;;;;;;8.52;5.03;;;;;;;8.26;100.00;98846.34;5070702;28;20467;-45
2024/01/07 10:19:46;;;;;;;8.57;5.05;;;;;;;8.10;100.00;98851.91;5071067;28;20496;-46
2024/01/07 10:22:16;;;;;;;8.82;5.07;;;;;;;7.97;100.00;98846.66;5071154;28;20477;-45
2024/01/07 10:24:48;;;;;;;8.57;5.30;;;;;;;7.90;100.00;98849.84;5071398;28;20060;-44
2024/01/07 10:27:16;;;;;;;10.63;5.88;;;;;;;7.95;100.00;98842.41;5071008;28;20485;-46
2024/01/07 10:29:47;;;;;;;10.95;6.10;;;;;;;7.79;100.00;98842.66;5071427;28;20048;-46
2024/01/07 10:32:15;;;;;;;9.32;5.97;;;;;;;7.67;100.00;98838.22;5071492;28;20402;-47
2024/01/07 10:34:47;;;;;;;8.93;5.57;;;;;;;7.80;100.00;98843.50;5071294;28;20174;-43
2024/01/07 10:37:16;;;;;;;6.85;4.85;;;;;;;7.87;100.00;98835.00;5071059;28;20056;-45
2024/01/07 10:39:45;;;;;;;11.20;6.22;;;;;;;7.79;100.00;98841.81;5070952;28;20048;-44
2024/01/07 10:42:15;;;;;;;15.52;8.50;;;;;;;7.91;100.00;98840.91;5070677;28;20577;-46
2024/01/07 10:44:44;;;;;;;17.33;10.48;;;;;;;7.95;100.00;98829.97;5070619;28;20047;-45
2024/01/07 10:47:14;;;;;;;12.77;8.20;;;;;;;7.92;100.00;98843.50;5071106;28;20049;-47
2024/01/07 10:49:45;;;;;;;10.13;6.90;;;;;;;7.90;100.00;98840.06;5070664;28;20425;-45
2024/01/07 10:52:13;;;;;;;11.52;7.80;;;;;;;8.07;100.00;98838.88;5070725;28;20080;-45
2024/01/07 10:54:45;;;;;;;10.23;6.72;;;;;;;8.14;100.00;98831.31;5070822;28;20065;-46
2024/01/07 10:57:23;;;;;;;9.70;6.80;;;;;;;8.11;100.00;98834.22;5070659;28;20493;-44
2024/01/07 10:59:54;;;;;;;10.30;6.95;;;;;;;8.00;100.00;98837.59;5070688;28;20055;-45
2024/01/07 11:02:24;;;;;;;9.40;6.07;;;;;;;8.13;100.00;98829.63;5070654;28;20564;-43
2024/01/07 11:05:01;;;;;;;10.73;7.05;;;;;;;8.24;100.00;98827.03;5070683;28;20084;-45
2024/01/07 11:07:37;;;;;;;11.18;6.97;;;;;;;8.13;100.00;98822.50;5071904;28;20040;-44
2024/01/07 11:10:11;;;;;;;8.43;5.88;;;;;;;7.95;100.00;98824.69;5071507;28;20053;-44
2024/01/07 11:12:41;;;;;;;10.18;5.68;;;;;;;7.81;100.00;98822.16;5073511;28;20093;-44
2024/01/07 11:15:10;;;;;;;9.63;5.70;;;;;;;7.83;100.00;98822.91;5072993;28;20048;-43
2024/01/07 11:17:43;;;;;;;9.98;4.75;;;;;;;7.78;100.00;98816.22;5066976;28;20087;-44
2024/01/07 11:20:19;;;;;;;7.22;4.15;;;;;;;7.72;100.00;98810.41;5073651;28;20131;-44
2024/01/07 11:22:47;;;;;;;8.27;4.13;;;;;;;7.70;100.00;98814.94;5073095;28;20083;-45
2024/01/07 11:25:32;;;;;;;10.80;4.90;;;;;;;7.67;100.00;98817.84;5072999;28;20490;-46
2024/01/07 11:28:03;;;;;;;8.85;4.88;;;;;;;7.81;100.00;98824.81;5072970;28;20040;-44
2024/01/07 11:30:39;;;;;;;8.27;4.82;;;;;;;7.73;100.00;98819.22;5073464;28;20106;-44
2024/01/07 11:33:07;;;;;;;7.70;5.30;;;;;;;7.61;100.00;98820.06;5072794;28;20088;-44